createdAt,value
2022-08-17T00:00:08.919Z,347.20
2022-08-17T00:01:09.028Z,349.80
2022-08-17T00:02:18.102Z,331.70
2022-08-17T00:03:10.238Z,318.70
2022-08-17T00:04:11.633Z,306.90
2022-08-17T00:05:08.883Z,313.70
2022-08-17T00:06:08.894Z,324.90
2022-08-17T00:07:08.844Z,328.00
2022-08-17T00:08:08.834Z,345.00
2022-08-17T00:09:08.819Z,382.80
2022-08-17T00:10:08.818Z,426.70
2022-08-17T00:11:08.847Z,435.00
2022-08-17T00:12:35.010Z,407.70
2022-08-17T00:13:09.785Z,392.80
2022-08-17T00:14:08.759Z,370.10
2022-08-17T00:15:10.728Z,348.40
2022-08-17T00:16:08.800Z,308.40
2022-08-17T00:17:08.779Z,322.30
2022-08-17T00:19:01.925Z,327.20
2022-08-17T00:19:09.710Z,318.10
2022-08-17T00:20:08.712Z,345.90
2022-08-17T00:21:10.495Z,320.10
2022-08-17T00:22:32.410Z,341.90
2022-08-17T00:23:09.656Z,346.80
2022-08-17T00:24:08.658Z,339.20
2022-08-17T00:25:08.648Z,335.50
2022-08-17T00:26:08.669Z,339.80
2022-08-17T00:27:08.645Z,337.20
2022-08-17T00:28:08.598Z,333.40
2022-08-17T00:29:08.602Z,334.00
2022-08-17T00:30:08.568Z,325.90
2022-08-17T00:31:08.611Z,333.60
2022-08-17T00:33:15.123Z,311.00
2022-08-17T00:33:15.776Z,335.20
2022-08-17T00:34:09.536Z,321.30
2022-08-17T00:35:08.533Z,318.50
2022-08-17T00:36:08.568Z,295.30
2022-08-17T00:37:08.503Z,279.60
2022-08-17T00:38:08.471Z,271.40
2022-08-17T00:39:08.481Z,258.00
2022-08-17T00:40:08.595Z,245.20
2022-08-17T00:41:08.461Z,226.30
2022-08-17T00:42:08.496Z,225.10
2022-08-17T00:43:08.459Z,253.70
2022-08-17T00:44:08.426Z,264.30
2022-08-17T00:45:08.425Z,300.20
2022-08-17T00:46:08.396Z,308.30
2022-08-17T00:47:08.442Z,303.60
2022-08-17T00:48:11.543Z,300.40
2022-08-17T00:49:09.363Z,293.50
2022-08-17T00:50:08.363Z,300.50
2022-08-17T00:51:08.355Z,288.40
2022-08-17T00:52:10.818Z,281.10
2022-08-17T00:53:08.301Z,288.30
2022-08-17T00:54:08.294Z,257.80
2022-08-17T00:55:08.305Z,258.70
2022-08-17T00:56:08.275Z,243.80
2022-08-17T00:57:08.315Z,238.60
2022-08-17T00:58:08.287Z,238.00
2022-08-17T00:59:08.268Z,218.00
2022-08-17T01:00:08.232Z,214.90
2022-08-17T01:01:08.276Z,222.40
2022-08-17T01:02:08.247Z,231.80
2022-08-17T01:03:08.209Z,238.50
2022-08-17T01:04:08.206Z,205.80
2022-08-17T01:05:08.183Z,243.80
2022-08-17T01:06:08.193Z,237.70
2022-08-17T01:07:08.200Z,248.40
2022-08-17T01:08:08.139Z,257.70
2022-08-17T01:09:08.148Z,223.70
2022-08-17T01:10:08.118Z,203.40
2022-08-17T01:11:09.132Z,238.70
2022-08-17T01:12:08.169Z,271.10
2022-08-17T01:13:08.102Z,226.50
2022-08-17T01:14:08.081Z,251.40
2022-08-17T01:15:08.070Z,245.40
2022-08-17T01:16:08.065Z,257.10
2022-08-17T01:17:08.100Z,198.30
2022-08-17T01:18:08.037Z,251.40
2022-08-17T01:19:08.028Z,265.50
2022-08-17T01:20:07.999Z,237.20
2022-08-17T01:21:08.013Z,242.90
2022-08-17T01:22:08.037Z,230.40
2022-08-17T01:23:07.992Z,218.00
2022-08-17T01:24:07.964Z,217.50
2022-08-17T01:25:07.950Z,245.50
2022-08-17T01:26:07.937Z,222.60
2022-08-17T01:27:10.673Z,224.90
2022-08-17T01:28:07.924Z,224.60
2022-08-17T01:29:07.903Z,246.30
2022-08-17T01:30:56.825Z,238.90
2022-08-17T01:31:08.883Z,232.90
2022-08-17T01:32:07.904Z,248.10
2022-08-17T01:33:07.876Z,269.60
2022-08-17T01:34:07.845Z,252.70
2022-08-17T01:35:07.867Z,245.40
2022-08-17T01:36:07.871Z,207.40
2022-08-17T01:37:07.869Z,238.70
2022-08-17T01:38:07.797Z,248.80
2022-08-17T01:39:07.817Z,237.40
2022-08-17T01:40:07.855Z,250.80
2022-08-17T01:41:07.765Z,228.10
2022-08-17T01:42:07.800Z,263.80
2022-08-17T01:43:07.761Z,247.90
2022-08-17T01:44:07.739Z,241.80
2022-08-17T01:45:07.716Z,211.10
2022-08-17T01:46:07.699Z,244.00
2022-08-17T01:47:07.788Z,229.20
2022-08-17T01:48:07.684Z,234.80
2022-08-17T01:49:07.689Z,254.10
2022-08-17T01:50:07.665Z,257.50
2022-08-17T01:51:07.680Z,260.60
2022-08-17T01:52:07.699Z,254.70
2022-08-17T01:53:07.646Z,254.40
2022-08-17T01:54:07.628Z,268.30
2022-08-17T01:55:07.621Z,277.80
2022-08-17T01:56:07.602Z,293.00
2022-08-17T01:57:07.651Z,296.70
2022-08-17T01:58:07.567Z,298.60
2022-08-17T01:59:07.563Z,310.20
2022-08-17T02:00:07.547Z,321.70
2022-08-17T02:01:07.611Z,318.90
2022-08-17T02:02:07.566Z,328.80
2022-08-17T02:03:07.545Z,331.00
2022-08-17T02:04:07.508Z,332.30
2022-08-17T02:05:07.503Z,335.60
2022-08-17T02:06:27.443Z,329.40
2022-08-17T02:07:08.527Z,333.30
2022-08-17T02:08:07.450Z,353.10
2022-08-17T02:09:07.464Z,351.10
2022-08-17T02:10:18.244Z,357.80
2022-08-17T02:11:11.285Z,352.80
2022-08-17T02:12:39.479Z,352.30
2022-08-17T02:13:08.426Z,348.60
2022-08-17T02:14:07.393Z,362.30
2022-08-17T02:15:07.401Z,360.50
2022-08-17T02:16:07.383Z,370.50
2022-08-17T02:17:07.448Z,374.60
2022-08-17T02:18:07.352Z,370.00
2022-08-17T02:19:07.345Z,371.00
2022-08-17T02:20:07.335Z,364.40
2022-08-17T02:21:07.332Z,368.60
2022-08-17T02:22:07.382Z,376.00
2022-08-17T02:23:07.296Z,376.20
2022-08-17T02:24:07.260Z,385.40
2022-08-17T02:25:07.283Z,375.10
2022-08-17T02:26:07.256Z,380.30
2022-08-17T02:27:07.295Z,385.40
2022-08-17T02:28:07.236Z,388.10
2022-08-17T02:29:07.216Z,381.40
2022-08-17T02:30:59.308Z,382.00
2022-08-17T02:31:08.188Z,381.80
2022-08-17T02:32:07.217Z,384.90
2022-08-17T02:33:09.277Z,405.70
2022-08-17T02:34:07.156Z,400.70
2022-08-17T02:35:07.163Z,397.70
2022-08-17T02:36:07.135Z,396.60
2022-08-17T02:37:07.195Z,417.50
2022-08-17T02:38:07.114Z,440.40
2022-08-17T02:39:07.095Z,492.70
2022-08-17T02:40:07.134Z,512.70
2022-08-17T02:41:07.069Z,474.10
2022-08-17T02:42:07.116Z,459.60
2022-08-17T02:43:07.076Z,487.70
2022-08-17T02:44:07.041Z,512.10
2022-08-17T02:45:07.047Z,534.10
2022-08-17T02:46:07.015Z,540.30
2022-08-17T02:47:07.071Z,546.10
2022-08-17T02:48:07.009Z,554.20
2022-08-17T02:49:07.003Z,559.60
2022-08-17T02:50:06.985Z,571.30
2022-08-17T02:51:06.989Z,583.70
2022-08-17T02:52:07.020Z,578.80
2022-08-17T02:53:07.125Z,591.80
2022-08-17T02:54:41.367Z,595.70
2022-08-17T02:55:07.916Z,610.60
2022-08-17T02:56:06.937Z,587.30
2022-08-17T02:57:06.970Z,612.10
2022-08-17T02:58:06.916Z,608.60
2022-08-17T02:59:06.875Z,617.80
2022-08-17T03:00:06.860Z,621.00
2022-08-17T03:01:06.846Z,630.60
2022-08-17T03:02:06.927Z,579.00
2022-08-17T03:03:06.846Z,628.00
2022-08-17T03:04:06.824Z,663.20
2022-08-17T03:05:06.833Z,640.80
2022-08-17T03:06:06.820Z,636.10
2022-08-17T03:07:06.853Z,637.60
2022-08-17T03:08:06.819Z,662.90
2022-08-17T03:09:07.778Z,640.00
2022-08-17T03:10:06.775Z,666.90
2022-08-17T03:11:06.748Z,643.40
2022-08-17T03:12:06.786Z,736.70
2022-08-17T03:13:06.714Z,780.50
2022-08-17T03:14:06.712Z,825.20
2022-08-17T03:15:06.695Z,900.00
2022-08-17T03:16:06.699Z,819.80
2022-08-17T03:17:06.711Z,843.40
2022-08-17T03:18:06.674Z,880.90
2022-08-17T03:19:06.656Z,855.70
2022-08-17T03:20:06.659Z,858.10
2022-08-17T03:21:06.625Z,865.50
2022-08-17T03:22:36.956Z,849.50
2022-08-17T03:23:07.597Z,783.90
2022-08-17T03:24:08.962Z,774.20
2022-08-17T03:25:06.686Z,732.20
2022-08-17T03:26:06.562Z,758.20
2022-08-17T03:27:07.597Z,763.60
2022-08-17T03:28:06.561Z,731.90
2022-08-17T03:29:06.518Z,772.30
2022-08-17T03:30:06.514Z,877.30
2022-08-17T03:31:06.495Z,878.80
2022-08-17T03:32:06.566Z,821.20
2022-08-17T03:33:06.487Z,881.10
2022-08-17T03:34:06.493Z,924.40
2022-08-17T03:35:06.456Z,905.60
2022-08-17T03:36:06.468Z,967.60
2022-08-17T03:37:06.498Z,894.10
2022-08-17T03:38:06.430Z,900.00
2022-08-17T03:39:06.425Z,691.40
2022-08-17T03:40:06.502Z,743.40
2022-08-17T03:41:06.412Z,798.30
2022-08-17T03:42:06.437Z,850.20
2022-08-17T03:43:06.396Z,835.80
2022-08-17T03:44:06.372Z,810.80
2022-08-17T03:45:06.337Z,798.30
2022-08-17T03:46:06.351Z,818.00
2022-08-17T03:47:07.383Z,795.20
2022-08-17T03:48:06.354Z,730.70
2022-08-17T03:49:06.300Z,785.10
2022-08-17T03:50:06.802Z,732.70
2022-08-17T03:51:06.307Z,720.10
2022-08-17T03:52:06.320Z,705.10
2022-08-17T03:53:06.263Z,681.40
2022-08-17T03:54:06.248Z,709.60
2022-08-17T03:55:06.248Z,726.40
2022-08-17T03:56:06.223Z,742.00
2022-08-17T03:57:06.258Z,704.60
2022-08-17T03:58:06.207Z,695.90
2022-08-17T03:59:06.174Z,706.50
2022-08-17T04:00:07.175Z,699.80
2022-08-17T04:01:06.192Z,658.30
2022-08-17T04:02:06.201Z,682.90
2022-08-17T04:03:06.136Z,641.70
2022-08-17T04:04:06.127Z,676.10
2022-08-17T04:05:06.097Z,657.40
2022-08-17T04:06:06.105Z,611.60
2022-08-17T04:07:06.136Z,643.50
2022-08-17T04:08:06.077Z,586.20
2022-08-17T04:09:06.070Z,574.50
2022-08-17T04:10:06.044Z,594.80
2022-08-17T04:11:06.045Z,581.90
2022-08-17T04:12:06.090Z,590.70
2022-08-17T04:13:06.020Z,546.10
2022-08-17T04:14:06.021Z,549.90
2022-08-17T04:15:05.990Z,553.00
2022-08-17T04:16:05.984Z,559.80
2022-08-17T04:17:06.015Z,560.40
2022-08-17T04:18:07.455Z,560.30
2022-08-17T04:19:05.944Z,560.10
2022-08-17T04:20:05.942Z,553.60
2022-08-17T04:21:05.922Z,559.70
2022-08-17T04:22:05.986Z,554.40
2022-08-17T04:23:05.906Z,570.10
2022-08-17T04:24:05.901Z,568.20
2022-08-17T04:25:05.881Z,569.70
2022-08-17T04:26:05.882Z,573.60
2022-08-17T04:27:05.911Z,572.30
2022-08-17T04:28:05.845Z,572.50
2022-08-17T04:29:06.837Z,594.00
2022-08-17T04:30:05.814Z,573.70
2022-08-17T04:31:05.802Z,595.40
2022-08-17T04:32:05.853Z,600.80
2022-08-17T04:33:07.381Z,612.80
2022-08-17T04:34:05.801Z,621.40
2022-08-17T04:35:05.761Z,622.80
2022-08-17T04:36:05.763Z,630.30
2022-08-17T04:37:05.801Z,615.80
2022-08-17T04:38:05.736Z,621.60
2022-08-17T04:39:05.726Z,635.20
2022-08-17T04:40:05.769Z,601.80
2022-08-17T04:41:05.698Z,621.00
2022-08-17T04:42:05.736Z,645.10
2022-08-17T04:43:05.678Z,638.50
2022-08-17T04:44:05.661Z,639.60
2022-08-17T04:45:05.649Z,647.20
2022-08-17T04:46:05.650Z,644.80
2022-08-17T04:47:05.684Z,633.20
2022-08-17T04:48:05.621Z,629.30
2022-08-17T04:49:05.611Z,631.80
2022-08-17T04:50:05.601Z,609.00
2022-08-17T04:51:05.594Z,581.90
2022-08-17T04:52:05.641Z,583.90
2022-08-17T04:53:05.570Z,570.30
2022-08-17T04:54:05.542Z,556.60
2022-08-17T04:55:05.543Z,564.10
2022-08-17T04:56:05.537Z,577.10
2022-08-17T04:57:05.572Z,562.90
2022-08-17T04:58:05.511Z,585.70
2022-08-17T04:59:05.499Z,577.20
2022-08-17T05:00:05.491Z,577.10
2022-08-17T05:01:05.499Z,558.30
2022-08-17T05:02:05.527Z,530.30
2022-08-17T05:03:05.439Z,506.80
2022-08-17T05:04:21.096Z,452.50
2022-08-17T05:05:06.440Z,474.20
2022-08-17T05:06:05.423Z,528.50
2022-08-17T05:07:05.411Z,501.50
2022-08-17T05:08:05.444Z,567.30
2022-08-17T05:09:05.391Z,537.20
2022-08-17T05:10:05.383Z,574.40
2022-08-17T05:11:05.362Z,587.40
2022-08-17T05:12:05.356Z,564.20
2022-08-17T05:13:05.381Z,536.30
2022-08-17T05:14:05.319Z,465.90
2022-08-17T05:15:05.307Z,511.90
2022-08-17T05:16:05.301Z,466.40
2022-08-17T05:17:07.259Z,459.10
2022-08-17T05:18:06.326Z,477.10
2022-08-17T05:19:05.270Z,436.80
2022-08-17T05:20:05.281Z,370.10
2022-08-17T05:21:05.244Z,355.70
2022-08-17T05:22:05.243Z,285.20
2022-08-17T05:23:05.267Z,282.30
2022-08-17T05:24:06.092Z,305.90
2022-08-17T05:25:06.206Z,312.40
2022-08-17T05:26:05.188Z,355.00
2022-08-17T05:27:06.141Z,348.80
2022-08-17T05:28:05.227Z,314.80
2022-08-17T05:29:05.160Z,234.80
2022-08-17T05:30:05.141Z,267.70
2022-08-17T05:31:05.119Z,224.80
2022-08-17T05:32:05.122Z,293.30
2022-08-17T05:33:06.143Z,198.20
2022-08-17T05:34:05.089Z,274.90
2022-08-17T05:35:05.089Z,276.40
2022-08-17T05:36:05.075Z,231.40
2022-08-17T05:37:05.085Z,198.50
2022-08-17T05:38:05.108Z,255.20
2022-08-17T05:39:05.040Z,182.90
2022-08-17T05:40:05.112Z,209.30
2022-08-17T05:41:05.016Z,157.60
2022-08-17T05:42:05.019Z,157.20
2022-08-17T05:43:05.035Z,144.50
2022-08-17T05:44:05.515Z,140.00
2022-08-17T05:45:04.956Z,94.40
2022-08-17T05:46:04.954Z,46.70
2022-08-17T05:47:04.952Z,44.70
2022-08-17T05:48:05.991Z,39.80
2022-08-17T05:49:04.936Z,74.60
2022-08-17T05:50:09.446Z,70.50
2022-08-17T05:51:05.901Z,103.20
2022-08-17T05:52:04.908Z,62.40
2022-08-17T05:53:04.915Z,63.20
2022-08-17T05:54:04.882Z,32.10
2022-08-17T05:55:04.850Z,75.10
2022-08-17T05:56:04.856Z,47.00
2022-08-17T05:57:04.835Z,71.90
2022-08-17T05:58:04.871Z,65.40
2022-08-17T05:59:04.814Z,51.30
2022-08-17T06:00:04.808Z,31.00
2022-08-17T06:01:04.836Z,30.30
2022-08-17T06:02:04.787Z,34.40
2022-08-17T06:03:04.833Z,31.50
2022-08-17T06:04:04.754Z,27.90
2022-08-17T06:05:04.742Z,26.90
2022-08-17T06:06:04.744Z,30.40
2022-08-17T06:07:04.718Z,30.60
2022-08-17T06:08:04.759Z,33.30
2022-08-17T06:09:04.699Z,31.40
2022-08-17T06:10:04.716Z,26.50
2022-08-17T06:11:04.708Z,25.10
2022-08-17T06:12:04.708Z,21.60
2022-08-17T06:13:04.736Z,23.20
2022-08-17T06:14:04.677Z,29.40
2022-08-17T06:15:04.638Z,33.20
2022-08-17T06:16:04.653Z,48.50
2022-08-17T06:17:05.620Z,39.70
2022-08-17T06:18:04.664Z,37.20
2022-08-17T06:19:04.604Z,29.80
2022-08-17T06:20:04.597Z,25.40
2022-08-17T06:21:04.579Z,20.70
2022-08-17T06:22:04.604Z,20.30
2022-08-17T06:23:04.611Z,18.80
2022-08-17T06:24:04.553Z,18.60
2022-08-17T06:25:04.525Z,15.70
2022-08-17T06:26:05.550Z,12.80
2022-08-17T06:27:04.516Z,11.40
2022-08-17T06:28:04.539Z,11.60
2022-08-17T06:29:04.496Z,13.60
2022-08-17T06:30:04.514Z,17.10
2022-08-17T06:31:04.462Z,17.40
2022-08-17T06:32:04.467Z,20.30
2022-08-17T06:33:04.503Z,16.20
2022-08-17T06:34:04.430Z,14.10
2022-08-17T06:35:04.424Z,13.10
2022-08-17T06:36:09.314Z,13.90
2022-08-17T06:37:05.404Z,12.50
2022-08-17T06:38:04.474Z,12.70
2022-08-17T06:39:04.381Z,10.00
2022-08-17T06:40:04.427Z,9.40
2022-08-17T06:41:04.364Z,9.20
2022-08-17T06:42:04.342Z,9.80
2022-08-17T06:43:06.396Z,10.80
2022-08-17T06:44:04.329Z,10.70
2022-08-17T06:45:04.307Z,10.20
2022-08-17T06:46:04.335Z,10.00
2022-08-17T06:47:04.300Z,10.90
2022-08-17T06:48:04.325Z,12.40
2022-08-17T06:49:04.259Z,14.30
2022-08-17T06:50:04.281Z,15.50
2022-08-17T06:51:04.232Z,15.70
2022-08-17T06:52:04.249Z,14.40
2022-08-17T06:53:04.267Z,13.20
2022-08-17T06:54:04.208Z,12.70
2022-08-17T06:55:04.207Z,13.80
2022-08-17T06:56:04.241Z,12.70
2022-08-17T06:57:04.175Z,10.90
2022-08-17T06:58:05.807Z,10.00
2022-08-17T06:59:05.162Z,9.50
2022-08-17T07:00:04.134Z,10.60
2022-08-17T07:01:04.156Z,9.30
2022-08-17T07:02:04.150Z,8.30
2022-08-17T07:03:04.549Z,9.10
2022-08-17T07:04:06.374Z,8.70
2022-08-17T07:05:05.090Z,8.20
2022-08-17T07:06:04.079Z,8.40
2022-08-17T07:07:04.074Z,8.70
2022-08-17T07:08:04.196Z,8.20
2022-08-17T07:09:04.066Z,8.80
2022-08-17T07:10:04.041Z,8.50
2022-08-17T07:11:04.053Z,7.90
2022-08-17T07:12:04.026Z,8.10
2022-08-17T07:13:04.048Z,8.40
2022-08-17T07:14:03.987Z,8.00
2022-08-17T07:15:03.993Z,8.40
2022-08-17T07:16:03.982Z,8.80
2022-08-17T07:17:03.985Z,8.30
2022-08-17T07:18:04.085Z,8.60
2022-08-17T07:19:03.942Z,8.10
2022-08-17T07:20:03.941Z,8.40
2022-08-17T07:21:03.946Z,8.90
2022-08-17T07:22:03.901Z,8.80
2022-08-17T07:23:03.979Z,9.10
2022-08-17T07:24:03.883Z,9.10
2022-08-17T07:25:03.859Z,9.50
2022-08-17T07:26:03.876Z,9.90
2022-08-17T07:27:03.847Z,9.50
2022-08-17T07:28:07.086Z,9.10
2022-08-17T07:29:03.834Z,9.00
2022-08-17T07:30:08.138Z,8.80
2022-08-17T07:31:04.815Z,9.10
2022-08-17T07:32:03.821Z,9.30
2022-08-17T07:33:03.835Z,9.10
2022-08-17T07:34:03.770Z,8.60
2022-08-17T07:35:03.777Z,8.90
2022-08-17T07:36:03.753Z,8.20
2022-08-17T07:37:03.759Z,8.30
2022-08-17T07:38:03.797Z,8.60
2022-08-17T07:39:03.726Z,8.40
2022-08-17T07:40:15.981Z,8.30
2022-08-17T07:41:04.713Z,8.30
2022-08-17T07:42:03.683Z,8.30
2022-08-17T07:43:04.981Z,8.50
2022-08-17T07:44:03.692Z,8.50
2022-08-17T07:45:03.678Z,8.40
2022-08-17T07:46:03.667Z,9.10
2022-08-17T07:47:03.675Z,9.40
2022-08-17T07:48:03.663Z,9.50
2022-08-17T07:49:03.663Z,9.60
2022-08-17T07:50:03.613Z,9.40
2022-08-17T07:51:03.585Z,10.30
2022-08-17T07:52:47.824Z,10.40
2022-08-17T07:53:04.645Z,9.50
2022-08-17T07:54:13.915Z,9.10
2022-08-17T07:55:04.545Z,9.00
2022-08-17T07:56:03.558Z,9.40
2022-08-17T07:57:03.541Z,9.40
2022-08-17T07:58:03.597Z,9.20
2022-08-17T07:59:03.538Z,9.40
2022-08-17T08:00:03.512Z,10.10
2022-08-17T08:01:03.485Z,10.50
2022-08-17T08:02:03.577Z,10.60
2022-08-17T08:03:03.514Z,11.40
2022-08-17T08:04:03.437Z,9.50
2022-08-17T08:05:03.445Z,9.30
2022-08-17T08:06:03.458Z,9.10
2022-08-17T08:07:03.427Z,8.90
2022-08-17T08:08:03.474Z,9.00
2022-08-17T08:09:03.404Z,9.40
2022-08-17T08:10:03.390Z,9.10
2022-08-17T08:11:03.391Z,9.10
2022-08-17T08:12:03.377Z,9.90
2022-08-17T08:13:03.414Z,10.10
2022-08-17T08:14:03.370Z,10.30
2022-08-17T08:15:03.371Z,9.80
2022-08-17T08:16:03.365Z,9.50
2022-08-17T08:17:03.337Z,9.30
2022-08-17T08:18:03.355Z,9.70
2022-08-17T08:19:03.306Z,9.50
2022-08-17T08:20:34.958Z,9.50
2022-08-17T08:21:04.278Z,9.40
2022-08-17T08:22:03.260Z,9.30
2022-08-17T08:23:03.324Z,9.20
2022-08-17T08:24:03.237Z,9.20
2022-08-17T08:25:03.237Z,9.60
2022-08-17T08:26:03.245Z,9.30
2022-08-17T08:27:03.239Z,10.40
2022-08-17T08:28:03.253Z,10.00
2022-08-17T08:29:03.199Z,10.60
2022-08-17T08:30:03.184Z,11.10
2022-08-17T08:31:03.154Z,11.30
2022-08-17T08:32:03.157Z,10.70
2022-08-17T08:33:03.232Z,12.50
2022-08-17T08:34:03.152Z,12.40
2022-08-17T08:35:03.722Z,11.40
2022-08-17T08:36:03.128Z,11.20
2022-08-17T08:37:16.561Z,11.30
2022-08-17T08:38:04.133Z,11.90
2022-08-17T08:39:03.105Z,11.70
2022-08-17T08:40:03.137Z,12.30
2022-08-17T08:41:03.094Z,13.30
2022-08-17T08:42:03.060Z,13.70
2022-08-17T08:43:03.111Z,13.10
2022-08-17T08:44:03.039Z,14.00
2022-08-17T08:45:05.005Z,14.80
2022-08-17T08:46:03.036Z,15.50
2022-08-17T08:47:03.014Z,15.00
2022-08-17T08:48:05.380Z,15.80
2022-08-17T08:49:14.536Z,15.70
2022-08-17T08:50:05.342Z,15.90
2022-08-17T08:51:02.972Z,16.30
2022-08-17T08:52:02.999Z,16.30
2022-08-17T08:53:02.999Z,16.20
2022-08-17T08:54:02.937Z,16.80
2022-08-17T08:55:02.941Z,16.50
2022-08-17T08:56:02.912Z,16.90
2022-08-17T08:58:03.939Z,17.00
2022-08-17T08:59:02.899Z,18.30
2022-08-17T09:00:02.875Z,18.50
2022-08-17T09:01:02.925Z,19.40
2022-08-17T09:02:02.830Z,20.30
2022-08-17T09:03:02.893Z,20.90
2022-08-17T09:04:20.021Z,21.50
2022-08-17T09:05:14.342Z,21.70
2022-08-17T09:06:03.810Z,22.60
2022-08-17T09:07:02.818Z,23.80
2022-08-17T09:08:02.857Z,24.60
2022-08-17T09:09:02.786Z,24.80
2022-08-17T09:10:02.754Z,24.50
2022-08-17T09:11:02.769Z,24.70
2022-08-17T09:12:03.932Z,23.90
2022-08-17T09:13:09.587Z,22.90
2022-08-17T09:14:03.725Z,22.90
2022-08-17T09:15:02.721Z,22.80
2022-08-17T09:16:02.732Z,21.50
2022-08-17T09:17:02.707Z,19.60
2022-08-17T09:19:02.199Z,19.40
2022-08-17T09:19:04.993Z,19.00
2022-08-17T09:20:02.683Z,19.40
2022-08-17T09:21:02.678Z,20.30
2022-08-17T09:22:02.663Z,19.90
2022-08-17T09:23:02.694Z,21.30
2022-08-17T09:24:02.650Z,22.30
2022-08-17T09:25:02.653Z,22.80
2022-08-17T09:26:02.612Z,23.10
2022-08-17T09:27:02.598Z,23.10
2022-08-17T09:28:02.652Z,23.50
2022-08-17T09:29:02.561Z,23.00
2022-08-17T09:30:02.585Z,23.80
2022-08-17T09:31:02.576Z,24.10
2022-08-17T09:32:02.555Z,24.80
2022-08-17T09:33:02.622Z,25.80
2022-08-17T09:34:02.559Z,25.90
2022-08-17T09:35:02.549Z,26.80
2022-08-17T09:36:02.522Z,27.60
2022-08-17T09:37:02.532Z,27.50
2022-08-17T09:38:02.562Z,28.40
2022-08-17T09:39:02.498Z,28.40
2022-08-17T09:40:02.551Z,28.40
2022-08-17T09:41:02.472Z,28.10
2022-08-17T09:42:02.488Z,28.40
2022-08-17T09:43:02.497Z,28.80
2022-08-17T09:44:02.432Z,28.90
2022-08-17T09:45:02.441Z,29.00
2022-08-17T09:46:02.438Z,28.70
2022-08-17T09:47:02.420Z,29.00
2022-08-17T09:48:02.464Z,29.10
2022-08-17T09:49:02.403Z,29.60
2022-08-17T09:50:02.405Z,30.60
2022-08-17T09:51:04.984Z,30.10
2022-08-17T09:52:02.439Z,29.70
2022-08-17T09:53:03.651Z,30.70
2022-08-17T09:54:21.355Z,32.20
2022-08-17T09:55:03.484Z,31.40
2022-08-17T09:56:02.355Z,30.00
2022-08-17T09:57:27.809Z,26.70
2022-08-17T09:58:03.373Z,25.10
2022-08-17T09:59:02.462Z,24.30
2022-08-17T10:00:02.291Z,24.20
2022-08-17T10:01:02.336Z,25.10
2022-08-17T10:02:03.090Z,26.10
2022-08-17T10:03:02.307Z,24.80
2022-08-17T10:04:02.613Z,24.60
2022-08-17T10:05:02.246Z,25.50
2022-08-17T10:06:02.252Z,24.80
2022-08-17T10:07:02.196Z,24.80
2022-08-17T10:08:02.227Z,24.40
2022-08-17T10:09:02.260Z,26.20
2022-08-17T10:10:02.202Z,27.10
2022-08-17T10:11:02.177Z,28.00
2022-08-17T10:12:02.190Z,28.80
2022-08-17T10:13:02.162Z,29.40
2022-08-17T10:14:02.373Z,29.00
2022-08-17T10:15:07.940Z,30.60
2022-08-17T10:16:03.537Z,31.00
2022-08-17T10:17:02.153Z,31.20
2022-08-17T10:18:02.166Z,31.90
2022-08-17T10:19:02.190Z,32.40
2022-08-17T10:20:02.345Z,32.90
2022-08-17T10:21:02.777Z,33.30
2022-08-17T10:22:14.896Z,34.40
2022-08-17T10:23:03.190Z,33.40
2022-08-17T10:24:02.403Z,32.70
2022-08-17T10:25:22.079Z,31.70
2022-08-17T10:26:03.359Z,30.80
2022-08-17T10:27:02.076Z,30.20
2022-08-17T10:28:02.043Z,29.30
2022-08-17T10:29:03.285Z,28.40
2022-08-17T10:30:02.027Z,27.50
2022-08-17T10:31:31.034Z,26.70
2022-08-17T10:32:03.012Z,25.80
2022-08-17T10:33:01.991Z,24.90
2022-08-17T10:34:02.028Z,24.40
2022-08-17T10:35:01.948Z,22.90
2022-08-17T10:36:01.939Z,21.60
2022-08-17T10:37:01.918Z,19.50
2022-08-17T10:38:01.916Z,17.70
2022-08-17T10:39:04.312Z,17.60
2022-08-17T10:40:01.930Z,17.50
2022-08-17T10:41:01.910Z,17.00
2022-08-17T10:42:01.872Z,16.80
2022-08-17T10:43:01.878Z,17.00
2022-08-17T10:44:40.391Z,16.50
2022-08-17T10:45:02.873Z,16.10
2022-08-17T10:46:10.581Z,16.10
2022-08-17T10:47:02.853Z,16.10
2022-08-17T10:48:05.778Z,16.00
2022-08-17T10:49:02.857Z,15.80
2022-08-17T10:50:01.808Z,14.80
2022-08-17T10:51:01.805Z,15.10
2022-08-17T10:52:01.790Z,16.00
2022-08-17T10:53:01.806Z,14.80
2022-08-17T10:54:01.849Z,13.30
2022-08-17T10:55:01.758Z,12.20
2022-08-17T10:56:01.733Z,13.30
2022-08-17T10:57:01.721Z,13.60
2022-08-17T10:58:01.708Z,13.10
2022-08-17T10:59:01.748Z,13.50
2022-08-17T11:00:01.718Z,11.80
2022-08-17T11:01:01.788Z,11.70
2022-08-17T11:02:01.687Z,12.10
2022-08-17T11:03:01.679Z,12.20
2022-08-17T11:04:01.710Z,11.30
2022-08-17T11:05:01.644Z,11.00
2022-08-17T11:06:01.655Z,10.50
2022-08-17T11:07:01.639Z,10.50
2022-08-17T11:08:01.646Z,10.00
2022-08-17T11:09:01.668Z,10.00
2022-08-17T11:10:01.618Z,10.00
2022-08-17T11:11:01.613Z,10.20
2022-08-17T11:12:01.598Z,10.00
2022-08-17T11:13:01.565Z,9.20
2022-08-17T11:14:01.618Z,9.10
2022-08-17T11:15:01.568Z,9.00
2022-08-17T11:16:06.242Z,8.30
2022-08-17T11:17:02.527Z,8.40
2022-08-17T11:18:01.560Z,8.00
2022-08-17T11:19:01.563Z,8.80
2022-08-17T11:20:01.513Z,8.80
2022-08-17T11:21:01.503Z,9.20
2022-08-17T11:22:01.505Z,9.40
2022-08-17T11:23:01.491Z,9.00
2022-08-17T11:24:01.556Z,8.90
2022-08-17T11:25:01.445Z,8.60
2022-08-17T11:26:01.424Z,8.90
2022-08-17T11:27:01.407Z,9.90
2022-08-17T11:28:01.452Z,9.80
2022-08-17T11:29:01.477Z,10.10
2022-08-17T11:30:02.505Z,10.30
2022-08-17T11:31:01.397Z,10.00
2022-08-17T11:32:01.395Z,10.20
2022-08-17T11:33:01.364Z,9.70
2022-08-17T11:34:01.420Z,10.30
2022-08-17T11:35:01.352Z,10.90
2022-08-17T11:36:01.346Z,9.90
2022-08-17T11:37:01.337Z,11.20
2022-08-17T11:38:01.324Z,11.30
2022-08-17T11:39:01.363Z,12.00
2022-08-17T11:40:01.342Z,11.00
2022-08-17T11:41:01.285Z,10.00
2022-08-17T11:42:01.297Z,10.00
2022-08-17T11:43:01.263Z,10.30
2022-08-17T11:44:02.045Z,10.40
2022-08-17T11:45:01.267Z,10.50
2022-08-17T11:46:01.225Z,10.80
2022-08-17T11:47:01.239Z,12.80
2022-08-17T11:48:27.833Z,11.90
2022-08-17T11:49:02.241Z,15.20
2022-08-17T11:50:01.233Z,15.70
2022-08-17T11:51:01.202Z,15.70
2022-08-17T11:52:01.473Z,14.70
2022-08-17T11:53:01.165Z,12.40
2022-08-17T11:54:28.930Z,12.50
2022-08-17T11:55:31.451Z,11.50
2022-08-17T11:56:02.143Z,10.70
2022-08-17T11:57:01.145Z,11.90
2022-08-17T11:58:01.099Z,16.20
2022-08-17T11:59:01.161Z,16.40
2022-08-17T12:00:01.080Z,16.00
2022-08-17T12:01:01.090Z,16.30
2022-08-17T12:02:01.090Z,14.30
2022-08-17T12:03:01.128Z,16.30
2022-08-17T12:04:01.123Z,13.30
2022-08-17T12:05:01.032Z,13.50
2022-08-17T12:06:01.061Z,13.10
2022-08-17T12:07:01.043Z,13.10
2022-08-17T12:08:01.016Z,12.60
2022-08-17T12:09:01.044Z,12.70
2022-08-17T12:10:01.015Z,13.30
2022-08-17T12:11:01.000Z,12.70
2022-08-17T12:12:12.818Z,11.40
2022-08-17T12:13:01.998Z,12.70
2022-08-17T12:14:01.019Z,12.40
2022-08-17T12:15:16.176Z,13.80
2022-08-17T12:16:01.994Z,13.50
2022-08-17T12:17:00.942Z,13.40
2022-08-17T12:18:00.902Z,13.30
2022-08-17T12:19:00.980Z,13.30
2022-08-17T12:20:00.934Z,12.60
2022-08-17T12:21:00.901Z,12.20
2022-08-17T12:22:00.918Z,13.00
2022-08-17T12:23:00.871Z,13.70
2022-08-17T12:24:00.918Z,14.20
2022-08-17T12:25:00.859Z,15.10
2022-08-17T12:26:00.861Z,14.90
2022-08-17T12:27:00.854Z,14.80
2022-08-17T12:28:06.595Z,14.50
2022-08-17T12:29:02.200Z,14.00
2022-08-17T12:30:00.810Z,15.20
2022-08-17T12:31:01.124Z,16.20
2022-08-17T12:32:00.826Z,16.70
2022-08-17T12:33:00.796Z,17.70
2022-08-17T12:34:00.844Z,18.00
2022-08-17T12:35:00.761Z,18.90
2022-08-17T12:36:00.793Z,19.40
2022-08-17T12:37:02.058Z,20.30
2022-08-17T12:38:01.050Z,20.70
2022-08-17T12:39:13.922Z,21.40
2022-08-17T12:40:01.996Z,22.50
2022-08-17T12:41:00.944Z,23.60
2022-08-17T12:42:02.532Z,24.80
2022-08-17T12:43:00.976Z,25.60
2022-08-17T12:44:00.900Z,26.60
2022-08-17T12:45:04.268Z,27.50